Time;durP1;ratioP1;P1;durP2;ratioP2;P2;SDS_P1;SDS_P2;PMS_P1;PMS_P2;Temp;Humidity;BMP_temperature;BMP_pressure;BME280_temperature;BME280_humidity;BME280_pressure;Samples;Min_cycle;Max_cycle;Signal;HPM_P1;HPM_P2
2023/01/07 00:00:10;;;;;;;9.20;4.18;;;;;;;5.65;100.00;96026.81;4980539;28;20050;-76
2023/01/07 00:02:55;;;;;;;11.25;4.53;;;;;;;5.61;100.00;96014.44;4982312;28;20064;-76
2023/01/07 00:05:21;;;;;;;11.23;4.50;;;;;;;5.53;100.00;96012.94;4999561;28;20046;-71
2023/01/07 00:07:46;;;;;;;10.95;4.65;;;;;;;5.52;100.00;96011.34;5018383;28;20018;-73
2023/01/07 00:10:12;;;;;;;10.15;4.63;;;;;;;5.51;100.00;96000.09;5002191;28;20062;-72
2023/01/07 00:12:37;;;;;;;8.95;4.45;;;;;;;5.59;100.00;96008.63;4996328;28;20094;-75
2023/01/07 00:15:03;;;;;;;12.68;4.70;;;;;;;5.67;100.00;96008.31;4978641;28;20463;-76
2023/01/07 00:17:29;;;;;;;11.27;4.70;;;;;;;5.66;100.00;96007.50;4990829;28;20061;-76
2023/01/07 00:19:54;;;;;;;11.75;4.53;;;;;;;5.62;100.00;96006.38;4989943;28;20047;-76
2023/01/07 00:22:20;;;;;;;9.98;4.50;;;;;;;5.57;100.00;95998.41;4991989;28;20492;-77
2023/01/07 00:24:45;;;;;;;9.40;4.15;;;;;;;5.55;100.00;96000.47;4987148;28;20046;-76
2023/01/07 00:27:11;;;;;;;9.25;4.20;;;;;;;5.50;100.00;96001.13;4993471;28;20050;-76
2023/01/07 00:29:36;;;;;;;11.00;4.10;;;;;;;5.52;100.00;95987.84;4977045;28;20046;-76
2023/01/07 00:32:02;;;;;;;8.32;3.85;;;;;;;5.57;100.00;95992.41;4979844;28;20085;-76
2023/01/07 00:34:27;;;;;;;10.13;4.20;;;;;;;5.47;100.00;95992.94;4979260;28;20055;-76
2023/01/07 00:37:48;;;;;;;10.65;4.15;;;;;;;5.40;100.00;95981.81;4977288;28;20054;-76
2023/01/07 00:39:38;;;;;;;8.73;4.25;;;;;;;5.56;100.00;95991.63;4994954;28;20420;-76
2023/01/07 00:44:48;;;;;;;16.60;4.65;;;;;;;5.53;100.00;95992.03;4987677;28;20034;-76
2023/01/07 00:47:13;;;;;;;8.55;4.75;;;;;;;5.59;100.00;95979.91;4976845;28;20105;-76
2023/01/07 00:49:39;;;;;;;8.57;4.13;;;;;;;5.54;100.00;95983.19;4984636;28;20703;-76
2023/01/07 00:52:04;;;;;;;9.02;4.35;;;;;;;5.49;100.00;95983.09;4989939;28;20049;-76
2023/01/07 00:54:30;;;;;;;10.30;4.18;;;;;;;5.52;100.00;95988.66;4979892;28;20067;-77
2023/01/07 00:56:55;;;;;;;8.75;4.25;;;;;;;5.54;100.00;95993.63;4983875;28;20042;-75
2023/01/07 00:59:21;;;;;;;9.00;4.22;;;;;;;5.41;100.00;95984.19;4990939;28;20042;-77
2023/01/07 01:01:46;;;;;;;7.93;3.63;;;;;;;5.31;100.00;95989.97;4980362;28;20046;-76
2023/01/07 01:04:12;;;;;;;8.63;4.03;;;;;;;5.47;100.00;95982.50;4976672;28;20089;-77
2023/01/07 01:06:38;;;;;;;10.65;4.32;;;;;;;5.50;100.00;95982.06;4986331;28;20038;-75
2023/01/07 01:09:03;;;;;;;7.43;3.90;;;;;;;5.45;100.00;95989.78;4978914;28;20039;-77
2023/01/07 01:11:29;;;;;;;8.60;4.63;;;;;;;5.48;100.00;95984.09;4978135;28;20042;-77
2023/01/07 01:13:54;;;;;;;9.65;4.60;;;;;;;5.49;100.00;95977.88;4976245;28;20081;-77
2023/01/07 01:16:20;;;;;;;8.93;4.15;;;;;;;5.50;100.00;95982.88;4984221;28;20065;-77
2023/01/07 01:18:45;;;;;;;9.00;4.00;;;;;;;5.42;100.00;95975.34;4970075;28;20069;-77
2023/01/07 01:21:13;;;;;;;12.07;4.78;;;;;;;5.46;100.00;95986.13;4988253;28;20047;-77
2023/01/07 01:23:39;;;;;;;10.30;4.35;;;;;;;5.51;100.00;95984.44;4959348;28;20039;-76
2023/01/07 01:26:11;;;;;;;8.73;4.18;;;;;;;5.46;100.00;95986.13;4981493;28;20563;-76
2023/01/07 01:28:37;;;;;;;11.25;5.10;;;;;;;5.52;100.00;95980.03;4972008;28;20042;-76
2023/01/07 01:31:03;;;;;;;10.00;5.03;;;;;;;5.52;100.00;95985.25;4988193;28;20038;-76
2023/01/07 01:33:29;;;;;;;14.70;5.65;;;;;;;5.58;100.00;95984.34;4957432;28;20743;-76
2023/01/07 01:35:54;;;;;;;8.70;4.45;;;;;;;5.51;100.00;95978.44;4988825;28;20043;-75
2023/01/07 01:38:20;;;;;;;9.88;4.55;;;;;;;5.51;100.00;95975.81;4975363;28;20050;-77
2023/01/07 01:40:45;;;;;;;11.88;4.47;;;;;;;5.47;100.00;95972.06;4985329;28;20101;-76
2023/01/07 01:43:33;;;;;;;11.30;4.40;;;;;;;5.38;100.00;95975.00;4980460;28;20070;-77
2023/01/07 01:46:09;;;;;;;12.18;4.78;;;;;;;5.41;100.00;95975.59;4976813;28;20042;-76
2023/01/07 01:48:38;;;;;;;13.32;4.60;;;;;;;5.41;100.00;95971.16;4968698;28;20077;-76
2023/01/07 01:51:08;;;;;;;14.20;4.32;;;;;;;5.40;100.00;95955.72;4974999;28;20098;-76
2023/01/07 01:53:34;;;;;;;10.50;4.80;;;;;;;5.46;100.00;95970.47;4971322;28;20097;-76
2023/01/07 01:56:07;;;;;;;10.93;4.55;;;;;;;5.42;100.00;95958.91;4980787;28;20046;-76
2023/01/07 01:58:59;;;;;;;10.02;4.00;;;;;;;5.38;100.00;95958.53;4982481;28;20047;-76
2023/01/07 02:01:25;;;;;;;7.45;3.90;;;;;;;5.28;100.00;95953.88;4975657;28;20487;-76
2023/01/07 02:03:52;;;;;;;8.40;3.60;;;;;;;5.32;100.00;95960.25;4971240;28;20043;-76
2023/01/07 02:06:24;;;;;;;8.77;4.45;;;;;;;5.34;100.00;95958.22;4974033;28;20646;-76
2023/01/07 02:08:49;;;;;;;9.02;4.18;;;;;;;5.39;100.00;95965.38;4979025;28;20050;-76
2023/01/07 02:11:32;;;;;;;7.80;4.00;;;;;;;5.38;100.00;95959.34;4975517;28;20046;-76
2023/01/07 02:14:23;;;;;;;10.48;4.13;;;;;;;5.43;100.00;95952.66;4974887;28;20046;-75
2023/01/07 02:16:48;;;;;;;9.15;4.15;;;;;;;5.38;100.00;95948.91;4978772;28;20039;-76
2023/01/07 02:19:29;;;;;;;11.05;4.35;;;;;;;5.32;100.00;95939.38;4972175;28;20047;-76
2023/01/07 02:22:04;;;;;;;8.60;4.22;;;;;;;5.34;100.00;95939.94;4985389;28;20043;-76
2023/01/07 02:24:48;;;;;;;11.20;4.38;;;;;;;5.34;100.00;95941.75;4993116;28;20049;-75
2023/01/07 02:27:31;;;;;;;12.32;4.63;;;;;;;5.30;100.00;95936.19;4991848;28;20049;-76
2023/01/07 02:30:28;;;;;;;8.88;4.38;;;;;;;5.28;100.00;95933.00;4986792;28;20039;-77
2023/01/07 02:33:08;;;;;;;12.55;3.97;;;;;;;5.19;100.00;95929.13;4961283;28;20051;-76
2023/01/07 02:35:55;;;;;;;8.10;3.78;;;;;;;5.21;100.00;95927.09;4973010;28;20421;-76
2023/01/07 02:38:39;;;;;;;8.90;4.35;;;;;;;5.16;100.00;95934.81;4984368;28;20093;-76
2023/01/07 02:41:34;;;;;;;7.50;3.28;;;;;;;5.17;100.00;95936.38;4957607;28;20046;-76
2023/01/07 02:44:15;;;;;;;9.50;3.58;;;;;;;5.13;100.00;95935.22;4971067;28;20066;-77
2023/01/07 02:47:02;;;;;;;7.22;3.50;;;;;;;5.11;100.00;95921.63;4991234;28;20050;-76
2023/01/07 02:49:27;;;;;;;6.50;3.30;;;;;;;5.12;100.00;95924.00;4984516;28;20045;-76
2023/01/07 02:51:53;;;;;;;7.72;3.70;;;;;;;5.09;100.00;95918.47;4987942;28;20031;-76
2023/01/07 02:54:26;;;;;;;7.35;3.58;;;;;;;5.17;100.00;95925.94;4984005;28;20054;-76
2023/01/07 02:57:22;;;;;;;6.13;3.17;;;;;;;5.17;100.00;95921.53;4990997;28;20519;-77
2023/01/07 03:00:21;;;;;;;7.22;3.60;;;;;;;5.22;100.00;95923.47;4968619;28;20066;-76
2023/01/07 03:03:24;;;;;;;7.35;3.53;;;;;;;5.17;100.00;95915.50;4988435;28;20045;-76
2023/01/07 03:05:58;;;;;;;7.30;3.53;;;;;;;5.23;100.00;95919.84;4990517;28;20042;-76
2023/01/07 03:08:33;;;;;;;;;;;;;;;5.24;100.00;95916.19;4959636;28;20043;-76
2023/01/07 03:11:02;;;;;;;6.40;3.03;;;;;;;5.24;100.00;95903.16;4966567;28;20470;-76
2023/01/07 03:14:25;;;;;;;7.50;3.17;;;;;;;5.24;100.00;95900.53;4974740;28;20043;-76
2023/01/07 03:16:57;;;;;;;5.40;2.70;;;;;;;5.22;100.00;95896.59;4910658;29;20044;-76
2023/01/07 03:19:46;;;;;;;5.68;2.80;;;;;;;5.17;100.00;95892.03;4925123;29;20044;-76
2023/01/07 03:22:15;;;;;;;4.85;2.65;;;;;;;5.22;100.00;95886.16;4967044;28;20129;-76
2023/01/07 03:24:43;;;;;;;4.63;2.63;;;;;;;5.23;100.00;95893.75;4990618;28;20043;-75
2023/01/07 03:27:09;;;;;;;4.47;2.28;;;;;;;5.21;100.00;95890.56;4985861;28;20046;-76
2023/01/07 03:29:35;;;;;;;5.07;2.70;;;;;;;5.16;100.00;95883.41;4986091;28;20042;-76
2023/01/07 03:32:13;;;;;;;8.55;3.15;;;;;;;5.17;100.00;95884.19;4994836;28;20042;-76
2023/01/07 03:34:39;;;;;;;7.40;2.75;;;;;;;5.12;100.00;95884.09;4986272;28;20046;-75
2023/01/07 03:37:10;;;;;;;6.03;2.90;;;;;;;5.13;100.00;95878.66;4988404;28;20066;-76
2023/01/07 03:39:38;;;;;;;5.55;3.05;;;;;;;5.09;100.00;95872.28;4984379;28;20105;-76
2023/01/07 03:44:53;;;;;;;5.50;2.65;;;;;;;5.07;100.00;95873.53;4989661;28;20458;-76
2023/01/07 03:47:18;;;;;;;8.15;2.85;;;;;;;5.12;100.00;95881.50;4986504;28;20042;-76
2023/01/07 03:49:44;;;;;;;7.35;2.67;;;;;;;5.13;100.00;95883.06;4993991;28;20065;-76
2023/01/07 03:52:10;;;;;;;6.07;2.88;;;;;;;5.09;100.00;95868.91;4985127;28;20070;-76
2023/01/07 03:54:36;;;;;;;5.43;3.05;;;;;;;5.07;100.00;95868.31;4975867;28;20050;-77
2023/01/07 03:57:01;;;;;;;5.93;2.60;;;;;;;4.93;100.00;95858.09;4974601;28;20038;-76
2023/01/07 03:59:27;;;;;;;5.35;2.83;;;;;;;4.92;100.00;95866.16;4968765;28;20042;-76
2023/01/07 04:01:52;;;;;;;8.52;2.70;;;;;;;4.92;100.00;95856.50;4987587;28;20043;-76
2023/01/07 04:04:18;;;;;;;5.55;2.75;;;;;;;4.92;100.00;95859.09;4989521;28;20043;-76
2023/01/07 04:06:43;;;;;;;5.57;2.60;;;;;;;4.88;100.00;95859.78;4990269;28;20051;-76
2023/01/07 04:09:11;;;;;;;7.00;2.72;;;;;;;4.83;100.00;95850.81;4986635;28;20042;-76
2023/01/07 04:11:36;;;;;;;6.43;2.90;;;;;;;4.88;100.00;95844.91;4983906;28;20746;-76
2023/01/07 04:14:02;;;;;;;6.82;2.88;;;;;;;4.95;100.00;95840.41;4979604;28;20126;-76
2023/01/07 04:16:27;;;;;;;5.63;2.90;;;;;;;4.92;100.00;95832.25;4982723;28;20459;-76
2023/01/07 04:18:53;;;;;;;4.80;2.45;;;;;;;4.92;100.00;95833.03;4964300;28;20043;-76
2023/01/07 04:21:18;;;;;;;8.48;3.08;;;;;;;4.72;100.00;95824.72;4976617;28;20042;-76
2023/01/07 04:23:44;;;;;;;5.30;2.65;;;;;;;4.63;100.00;95825.03;4984938;28;20042;-76
2023/01/07 04:26:09;;;;;;;7.38;2.60;;;;;;;4.62;100.00;95835.69;4992157;28;20077;-76
2023/01/07 04:28:35;;;;;;;8.95;3.00;;;;;;;4.56;100.00;95824.34;4984092;28;20686;-75
2023/01/07 04:31:00;;;;;;;6.00;2.92;;;;;;;4.61;100.00;95819.28;4973833;28;20050;-76
2023/01/07 04:33:26;;;;;;;6.95;3.03;;;;;;;4.66;100.00;95816.78;4986728;28;20452;-76
2023/01/07 04:35:52;;;;;;;5.00;2.60;;;;;;;4.58;100.00;95813.69;4984101;28;20122;-76
2023/01/07 04:38:17;;;;;;;7.60;2.67;;;;;;;4.49;100.00;95815.81;4983231;28;20066;-76
2023/01/07 04:40:43;;;;;;;7.18;3.25;;;;;;;4.43;100.00;95814.13;4989761;28;20104;-76
2023/01/07 04:43:09;;;;;;;6.28;2.80;;;;;;;4.24;100.00;95803.75;4987325;28;20093;-76
2023/01/07 04:45:35;;;;;;;5.38;2.88;;;;;;;4.24;100.00;95808.97;4978276;28;20068;-76
2023/01/07 04:48:00;;;;;;;7.15;3.03;;;;;;;4.08;100.00;95799.16;4966258;28;20039;-76
2023/01/07 04:50:26;;;;;;;6.68;2.80;;;;;;;4.04;100.00;95803.19;4972445;28;20049;-76
2023/01/07 04:52:51;;;;;;;5.75;3.13;;;;;;;4.03;100.00;95796.44;4990133;28;20065;-75
2023/01/07 04:55:17;;;;;;;6.57;2.67;;;;;;;3.93;100.00;95787.31;4964774;28;20046;-76
2023/01/07 04:57:43;;;;;;;6.18;2.92;;;;;;;3.91;100.00;95794.56;4983333;28;20043;-76
2023/01/07 05:00:09;;;;;;;6.90;3.08;;;;;;;3.87;100.00;95788.19;4990256;28;20046;-77
2023/01/07 05:02:35;;;;;;;7.15;2.70;;;;;;;3.89;100.00;95786.16;4981630;28;20042;-77
2023/01/07 05:05:00;;;;;;;7.10;3.05;;;;;;;3.66;100.00;95780.84;4985590;28;20373;-76
2023/01/07 05:07:26;;;;;;;6.45;3.15;;;;;;;3.68;100.00;95778.81;4987279;28;20440;-75
2023/01/07 05:09:52;;;;;;;5.10;2.65;;;;;;;3.57;100.00;95783.75;4984053;28;20504;-76
2023/01/07 05:12:17;;;;;;;4.80;2.65;;;;;;;3.48;100.00;95779.84;4989189;28;20070;-76
2023/01/07 05:14:43;;;;;;;5.95;2.80;;;;;;;3.25;100.00;95776.09;4971014;28;20648;-76
2023/01/07 05:17:08;;;;;;;5.57;2.83;;;;;;;3.20;100.00;95768.13;4954168;28;20038;-75
2023/01/07 05:19:34;;;;;;;6.35;2.40;;;;;;;3.18;100.00;95770.16;4982960;28;20050;-76
2023/01/07 05:21:59;;;;;;;6.53;2.85;;;;;;;3.06;100.00;95761.47;4987939;28;20104;-76
2023/01/07 05:24:25;;;;;;;5.40;2.45;;;;;;;2.95;100.00;95761.16;4979758;28;20043;-76
2023/01/07 05:26:50;;;;;;;4.90;2.38;;;;;;;2.81;100.00;95754.50;4954179;28;20092;-76
2023/01/07 05:29:16;;;;;;;6.05;2.63;;;;;;;2.73;100.00;95759.97;4979999;28;20043;-76
2023/01/07 05:31:42;;;;;;;5.40;2.40;;;;;;;2.64;100.00;95753.47;4987750;28;20053;-76
2023/01/07 05:34:07;;;;;;;7.63;3.50;;;;;;;2.56;100.00;95752.72;4984171;28;20046;-75
2023/01/07 05:36:33;;;;;;;4.05;2.30;;;;;;;2.59;100.00;95752.28;4985877;28;20039;-75
2023/01/07 05:38:58;;;;;;;4.65;2.40;;;;;;;2.48;100.00;95752.19;4981014;28;20042;-76
2023/01/07 05:41:24;;;;;;;6.63;2.80;;;;;;;2.34;100.00;95749.69;4982654;28;20042;-76
2023/01/07 05:43:49;;;;;;;5.20;2.40;;;;;;;2.22;100.00;95741.00;4984100;28;20488;-75
2023/01/07 05:46:15;;;;;;;4.57;2.60;;;;;;;2.10;100.00;95735.69;4975400;28;20045;-75
2023/01/07 05:48:41;;;;;;;5.70;2.60;;;;;;;2.05;100.00;95730.31;4961240;28;20039;-76
2023/01/07 05:51:06;;;;;;;5.53;2.90;;;;;;;1.99;100.00;95720.78;4982417;28;20693;-75
2023/01/07 05:53:32;;;;;;;5.43;2.78;;;;;;;1.93;100.00;95727.59;4969961;28;20412;-75
2023/01/07 05:55:59;;;;;;;7.03;2.72;;;;;;;1.92;100.00;95735.59;4982302;28;20045;-76
2023/01/07 05:58:26;;;;;;;5.07;2.90;;;;;;;1.86;100.00;95735.41;4972352;28;20046;-75
2023/01/07 06:00:52;;;;;;;5.60;2.50;;;;;;;1.83;100.00;95733.22;4981649;28;20055;-74
2023/01/07 06:03:18;;;;;;;7.75;2.70;;;;;;;1.80;100.00;95727.69;4981545;28;20043;-76
2023/01/07 06:05:44;;;;;;;6.35;2.78;;;;;;;1.73;100.00;95727.72;4979200;28;20102;-75
2023/01/07 06:08:09;;;;;;;7.68;2.83;;;;;;;1.54;100.00;95722.41;4971638;28;20051;-76
2023/01/07 06:10:35;;;;;;;5.30;2.47;;;;;;;1.47;100.00;95724.22;4986086;28;20042;-75
2023/01/07 06:13:01;;;;;;;4.47;2.75;;;;;;;1.60;100.00;95722.59;4981670;28;20452;-75
2023/01/07 06:15:27;;;;;;;4.63;2.40;;;;;;;1.52;100.00;95721.81;4984318;28;20050;-75
2023/01/07 06:17:52;;;;;;;5.43;3.00;;;;;;;1.47;100.00;95724.22;4983116;28;20054;-75
2023/01/07 06:20:18;;;;;;;5.20;2.83;;;;;;;1.34;100.00;95714.72;4985258;28;20039;-76
2023/01/07 06:22:44;;;;;;;5.05;2.90;;;;;;;1.31;100.00;95714.34;4970885;28;20042;-77
2023/01/07 06:25:11;;;;;;;5.68;2.60;;;;;;;1.33;100.00;95712.31;4987029;28;20122;-77
2023/01/07 06:27:36;;;;;;;5.97;2.80;;;;;;;1.28;100.00;95720.72;4980182;28;20058;-77
2023/01/07 06:30:09;;;;;;;5.85;2.85;;;;;;;1.18;100.00;95726.34;4988487;28;20043;-77
2023/01/07 06:32:40;;;;;;;4.82;2.50;;;;;;;1.08;100.00;95715.59;4984456;28;20046;-77
2023/01/07 06:35:08;;;;;;;5.53;2.50;;;;;;;1.11;100.00;95715.19;4973285;28;20059;-77
2023/01/07 06:37:33;;;;;;;4.45;2.60;;;;;;;1.04;100.00;95720.38;4983240;28;20128;-77
2023/01/07 06:39:59;;;;;;;4.80;2.47;;;;;;;1.04;100.00;95719.59;4992061;28;20042;-75
2023/01/07 06:42:26;;;;;;;4.63;2.47;;;;;;;0.98;100.00;95715.25;4985190;28;20050;-73
2023/01/07 06:44:51;;;;;;;6.15;2.60;;;;;;;0.91;100.00;95711.88;4981982;28;20045;-74
2023/01/07 06:47:17;;;;;;;5.95;2.78;;;;;;;0.84;100.00;95704.88;4980878;28;20047;-74
2023/01/07 06:49:42;;;;;;;5.07;2.45;;;;;;;0.77;100.00;95704.09;4981701;28;20563;-77
2023/01/07 06:52:08;;;;;;;4.88;2.45;;;;;;;0.78;100.00;95703.13;4985899;28;20105;-76
2023/01/07 06:54:33;;;;;;;7.03;2.90;;;;;;;0.70;100.00;95700.72;4971670;28;20455;-75
2023/01/07 06:56:59;;;;;;;8.60;3.00;;;;;;;0.70;100.00;95708.50;4991242;28;20038;-75
2023/01/07 06:59:24;;;;;;;8.50;2.58;;;;;;;0.67;100.00;95708.91;4967736;28;20047;-76
2023/01/07 07:01:50;;;;;;;4.82;2.47;;;;;;;0.60;100.00;95708.13;4988161;28;20041;-73
2023/01/07 07:04:16;;;;;;;4.68;2.50;;;;;;;0.57;100.00;95709.31;4985854;28;20042;-75
2023/01/07 07:06:41;;;;;;;5.70;2.45;;;;;;;0.48;100.00;95706.13;4983359;28;20508;-76
2023/01/07 07:09:07;;;;;;;6.57;2.90;;;;;;;0.37;100.00;95693.78;4979325;28;20051;-75
2023/01/07 07:11:32;;;;;;;7.25;3.05;;;;;;;0.34;100.00;95699.38;4972015;28;20046;-81
2023/01/07 07:13:58;;;;;;;7.43;2.85;;;;;;;0.39;100.00;95697.00;4973218;28;20488;-76
2023/01/07 07:16:24;;;;;;;6.88;2.90;;;;;;;0.36;100.00;95697.41;4984900;28;20090;-76
2023/01/07 07:18:51;;;;;;;4.60;2.50;;;;;;;0.38;100.00;95700.56;4993606;28;20042;-74
2023/01/07 07:21:17;;;;;;;6.20;2.95;;;;;;;0.34;100.00;95701.97;4984884;28;20049;-78
2023/01/07 07:23:43;;;;;;;6.05;2.90;;;;;;;0.32;100.00;95698.78;4977988;28;20053;-75
2023/01/07 07:26:09;;;;;;;6.00;3.10;;;;;;;0.32;100.00;95691.81;4958199;28;20039;-79
2023/01/07 07:28:35;;;;;;;5.93;2.75;;;;;;;0.34;100.00;95689.03;4973892;28;20465;-76
2023/01/07 07:31:01;;;;;;;6.40;2.90;;;;;;;0.34;100.00;95689.03;4978333;28;20102;-81
2023/01/07 07:33:26;;;;;;;5.00;2.60;;;;;;;0.32;100.00;95691.03;4978293;28;20051;-78
2023/01/07 07:35:53;;;;;;;8.23;2.95;;;;;;;0.25;100.00;95687.66;4985730;28;20038;-76
2023/01/07 07:38:19;;;;;;;9.88;3.17;;;;;;;0.31;100.00;95685.03;4967207;28;20053;-78
2023/01/07 07:40:45;;;;;;;4.68;2.70;;;;;;;0.27;100.00;95688.22;4968167;28;20038;-77
2023/01/07 07:43:11;;;;;;;5.72;2.60;;;;;;;0.27;100.00;95683.06;4965604;28;20046;-77
2023/01/07 07:45:37;;;;;;;4.82;2.55;;;;;;;0.27;100.00;95688.22;4988774;28;20747;-77
2023/01/07 07:48:06;;;;;;;6.38;2.65;;;;;;;0.23;100.00;95687.03;4985685;28;20057;-77
2023/01/07 07:50:32;;;;;;;4.75;2.80;;;;;;;0.25;100.00;95680.66;4986602;28;20046;-76
2023/01/07 07:52:58;;;;;;;6.65;2.92;;;;;;;0.25;100.00;95674.69;4984234;28;20094;-76
2023/01/07 07:55:23;;;;;;;5.03;2.55;;;;;;;0.34;100.00;95663.13;4967073;28;20077;-76
2023/01/07 07:57:52;;;;;;;6.72;2.90;;;;;;;0.31;100.00;95664.31;4983611;28;20046;-77
2023/01/07 08:00:17;;;;;;;5.88;3.17;;;;;;;0.34;100.00;95663.13;4975536;28;20141;-81
2023/01/07 08:02:43;;;;;;;5.60;2.72;;;;;;;0.36;100.00;95671.50;4980280;28;20051;-75
2023/01/07 08:05:10;;;;;;;7.45;2.85;;;;;;;0.24;100.00;95658.34;4966401;28;20050;-76
2023/01/07 08:07:36;;;;;;;5.85;2.80;;;;;;;0.34;100.00;95657.94;4982408;28;20386;-76
2023/01/07 08:10:01;;;;;;;6.38;3.28;;;;;;;0.29;100.00;95660.38;4985057;28;20053;-76
2023/01/07 08:12:27;;;;;;;7.53;3.10;;;;;;;0.27;100.00;95657.16;4976248;28;20071;-75
2023/01/07 08:14:52;;;;;;;7.75;2.95;;;;;;;0.42;100.00;95651.78;4987951;28;20039;-76
2023/01/07 08:17:18;;;;;;;7.75;3.25;;;;;;;0.40;100.00;95657.13;4973215;28;20097;-75
2023/01/07 08:19:43;;;;;;;7.65;2.95;;;;;;;0.47;100.00;95652.75;4987503;28;20050;-76
2023/01/07 08:22:09;;;;;;;6.03;3.03;;;;;;;0.62;100.00;95649.16;4982633;28;20043;-75
2023/01/07 08:24:34;;;;;;;8.18;3.15;;;;;;;0.66;100.00;95647.72;4984514;28;20043;-75
2023/01/07 08:27:00;;;;;;;7.30;3.38;;;;;;;0.86;100.00;95645.09;4990648;28;20037;-76
2023/01/07 08:29:26;;;;;;;9.68;3.65;;;;;;;0.86;100.00;95640.72;4991493;28;20049;-75
2023/01/07 08:31:51;;;;;;;5.40;3.33;;;;;;;0.88;100.00;95637.09;4989016;28;20448;-77
2023/01/07 08:34:17;;;;;;;6.70;3.67;;;;;;;1.07;100.00;95638.06;4981830;28;20417;-74
2023/01/07 08:36:42;;;;;;;8.48;4.60;;;;;;;1.33;100.00;95634.53;4965105;28;20046;-76
2023/01/07 08:39:08;;;;;;;13.00;4.68;;;;;;;1.63;100.00;95633.97;4986920;28;20117;-75
2023/01/07 08:41:34;;;;;;;9.75;5.05;;;;;;;1.81;100.00;95635.84;4992791;28;20066;-75
2023/01/07 08:43:59;;;;;;;13.20;5.85;;;;;;;1.94;100.00;95629.75;4985010;28;20038;-76
2023/01/07 08:46:25;;;;;;;12.02;6.03;;;;;;;2.10;100.00;95629.25;4973750;28;20051;-75
2023/01/07 08:48:50;;;;;;;14.35;6.22;;;;;;;2.22;100.00;95632.72;4992299;28;20054;-75
2023/01/07 08:51:16;;;;;;;11.38;5.68;;;;;;;2.35;100.00;95624.00;4992004;28;20050;-75
2023/01/07 08:53:42;;;;;;;15.95;5.95;;;;;;;2.43;100.00;95620.34;4976956;28;20525;-77
2023/01/07 08:56:07;;;;;;;10.95;5.97;;;;;;;2.51;100.00;95614.06;4981974;28;20530;-78
2023/01/07 08:58:33;;;;;;;11.98;6.22;;;;;;;2.71;100.00;95613.88;4992690;28;20099;-75
2023/01/07 09:01:01;;;;;;;11.52;5.82;;;;;;;2.77;100.00;95605.19;4986432;28;20046;-77
2023/01/07 09:03:27;;;;;;;14.80;6.70;;;;;;;2.73;100.00;95606.63;4987904;28;20049;-78
2023/01/07 09:05:53;;;;;;;12.70;6.57;;;;;;;2.82;100.00;95605.34;4992535;28;20042;-75
2023/01/07 09:08:18;;;;;;;12.65;6.30;;;;;;;2.95;100.00;95605.19;4992060;28;20039;-76
2023/01/07 09:10:44;;;;;;;14.27;6.95;;;;;;;3.14;100.00;95607.78;4990705;28;20046;-78
2023/01/07 09:13:09;;;;;;;13.75;6.30;;;;;;;3.28;100.00;95603.97;4972700;28;20416;-76
2023/01/07 09:15:35;;;;;;;13.25;6.05;;;;;;;3.44;100.00;95606.97;4990967;28;20492;-76
2023/01/07 09:18:02;;;;;;;16.52;6.85;;;;;;;3.53;100.00;95595.22;4991484;28;20489;-76
2023/01/07 09:20:29;;;;;;;12.00;6.05;;;;;;;3.60;100.00;95601.13;4990951;28;20050;-76
2023/01/07 09:22:54;;;;;;;13.05;6.07;;;;;;;3.72;100.00;95602.97;4977179;28;20221;-75
2023/01/07 09:25:20;;;;;;;10.70;5.53;;;;;;;3.82;100.00;95598.00;4987095;28;20050;-75
2023/01/07 09:27:45;;;;;;;11.27;5.93;;;;;;;3.90;100.00;95605.50;4988320;28;20487;-76
2023/01/07 09:30:11;;;;;;;12.80;6.03;;;;;;;4.02;100.00;95602.13;4967238;28;20047;-76
2023/01/07 09:32:37;;;;;;;13.38;5.75;;;;;;;4.09;100.00;95597.59;4986090;28;20039;-75
2023/01/07 09:35:04;;;;;;;10.75;5.18;;;;;;;4.25;100.00;95602.16;4970756;28;20051;-79
2023/01/07 09:37:30;;;;;;;11.63;5.40;;;;;;;4.37;100.00;95603.94;4983557;28;20117;-78
2023/01/07 09:39:56;;;;;;;13.90;5.40;;;;;;;4.46;100.00;95594.75;4968503;28;20046;-76
2023/01/07 09:42:36;;;;;;;12.93;6.57;;;;;;;4.63;100.00;95597.47;4976265;28;20045;-76
2023/01/07 09:45:27;;;;;;;13.23;5.40;;;;;;;4.75;100.00;95590.41;4964881;28;20424;-76
2023/01/07 09:47:56;;;;;;;10.10;4.97;;;;;;;4.94;100.00;95587.66;4990936;28;20038;-76
2023/01/07 09:50:47;;;;;;;11.43;4.93;;;;;;;5.92;100.00;95582.31;4971773;28;20045;-76
2023/01/07 09:53:25;;;;;;;10.90;4.60;;;;;;;7.51;100.00;95574.88;4986890;28;20043;-75
2023/01/07 09:55:53;;;;;;;14.68;4.28;;;;;;;7.93;100.00;95576.81;4979287;28;20101;-76
2023/01/07 09:58:19;;;;;;;7.15;3.75;;;;;;;8.89;100.00;95566.38;4981876;28;20047;-74
2023/01/07 10:00:57;;;;;;;6.30;3.33;;;;;;;8.89;100.00;95550.63;4989395;28;20488;-75
2023/01/07 10:03:38;;;;;;;6.45;3.38;;;;;;;8.67;100.00;95554.22;4985221;28;20069;-75
2023/01/07 10:06:21;;;;;;;8.13;3.30;;;;;;;8.91;100.00;95553.81;4982973;28;20038;-76
2023/01/07 10:09:12;;;;;;;7.50;3.38;;;;;;;8.82;100.00;95550.84;4982298;28;20408;-74
2023/01/07 10:11:44;;;;;;;5.05;2.88;;;;;;;9.10;100.00;95541.78;4990613;28;20042;-73
2023/01/07 10:14:32;;;;;;;6.00;2.90;;;;;;;9.61;100.00;95540.28;4980547;28;20532;-76
2023/01/07 10:17:24;;;;;;;3.95;2.40;;;;;;;9.75;95.09;95536.06;4968083;28;20098;-75
2023/01/07 10:20:16;;;;;;;5.18;2.83;;;;;;;10.06;93.95;95531.59;4985847;28;20042;-75
2023/01/07 10:23:12;;;;;;;3.70;2.30;;;;;;;10.12;88.15;95529.75;4993125;28;20034;-75
2023/01/07 10:25:46;;;;;;;5.60;2.95;;;;;;;11.54;87.04;95510.22;4993931;28;20519;-75
2023/01/07 10:28:36;;;;;;;4.72;2.70;;;;;;;11.22;81.76;95519.38;4979577;28;20506;-75
2023/01/07 10:31:04;;;;;;;4.80;2.60;;;;;;;10.67;82.29;95513.31;4957252;28;20054;-75
2023/01/07 10:33:33;;;;;;;5.63;2.90;;;;;;;10.96;82.37;95516.09;4980372;28;20038;-74
2023/01/07 10:36:17;;;;;;;5.13;2.60;;;;;;;10.96;85.24;95507.41;4992104;28;20073;-74
2023/01/07 10:38:52;;;;;;;4.45;2.70;;;;;;;11.41;80.87;95502.94;4976988;28;20084;-74
2023/01/07 10:41:26;;;;;;;4.15;2.50;;;;;;;12.01;75.37;95496.66;4993716;28;20053;-75
2023/01/07 10:44:24;;;;;;;4.18;2.35;;;;;;;12.28;76.83;95490.84;4961990;28;20049;-74
2023/01/07 10:47:03;;;;;;;5.30;2.55;;;;;;;11.91;75.61;95482.50;4974482;28;20102;-74
2023/01/07 10:49:49;;;;;;;4.32;2.55;;;;;;;11.24;79.47;95480.38;4976062;28;20047;-75
2023/01/07 10:52:53;;;;;;;4.55;2.70;;;;;;;11.18;80.90;95475.44;4995301;28;20054;-78
2023/01/07 10:56:00;;;;;;;4.07;2.58;;;;;;;12.49;82.30;95480.88;4989550;28;20054;-76
2023/01/07 10:58:38;;;;;;;11.57;2.72;;;;;;;13.06;73.96;95469.59;4960191;28;20488;-76
2023/01/07 11:01:05;;;;;;;5.32;2.70;;;;;;;13.37;71.14;95466.53;4984576;28;20045;-77
2023/01/07 11:03:32;;;;;;;4.05;2.47;;;;;;;13.10;71.13;95467.94;4971775;28;20039;-77
2023/01/07 11:06:07;;;;;;;4.65;2.70;;;;;;;12.57;72.81;95467.06;4986578;28;20042;-75
2023/01/07 11:08:38;;;;;;;4.55;2.60;;;;;;;13.12;67.98;95465.81;4991747;28;20183;-76
2023/01/07 11:11:04;;;;;;;6.88;2.60;;;;;;;13.00;67.45;95453.81;4986900;28;20044;-76
2023/01/07 11:13:32;;;;;;;5.28;2.65;;;;;;;13.76;66.65;95454.81;4988961;28;20066;-75
2023/01/07 11:16:09;;;;;;;4.95;2.45;;;;;;;13.42;66.20;95453.22;4968480;28;20096;-75
2023/01/07 11:18:51;;;;;;;3.90;2.80;;;;;;;12.95;67.79;95440.66;4978969;28;20500;-76
2023/01/07 11:21:40;;;;;;;4.68;2.70;;;;;;;13.37;66.09;95440.09;4983773;28;20046;-75
2023/01/07 11:24:17;;;;;;;3.60;2.40;;;;;;;12.92;67.62;95435.97;4988625;28;20065;-75
2023/01/07 11:26:44;;;;;;;3.47;2.25;;;;;;;13.53;69.47;95433.50;4995587;28;21297;-74
2023/01/07 11:29:23;;;;;;;4.70;2.75;;;;;;;14.26;65.06;95428.50;4988055;28;20057;-76
2023/01/07 11:31:55;;;;;;;4.85;2.78;;;;;;;14.32;60.84;95422.03;4970198;28;20051;-75
2023/01/07 11:34:33;;;;;;;6.78;2.95;;;;;;;14.46;59.93;95421.25;4996617;28;20042;-76
2023/01/07 11:36:59;;;;;;;5.93;2.92;;;;;;;14.26;60.30;95417.91;4983766;28;20444;-76
2023/01/07 11:39:33;;;;;;;4.90;2.80;;;;;;;14.12;60.32;95409.19;5004850;28;20665;-76
2023/01/07 11:45:26;;;;;;;4.25;2.50;;;;;;;14.84;59.61;95389.22;4985324;28;20048;-75
2023/01/07 11:48:08;;;;;;;4.72;2.70;;;;;;;14.34;61.47;95382.81;4990482;28;20050;-76
2023/01/07 11:50:36;;;;;;;5.30;2.80;;;;;;;13.78;61.66;95392.63;4994306;28;20500;-73
2023/01/07 11:53:09;;;;;;;5.68;3.05;;;;;;;14.08;59.46;95379.09;4979592;28;20050;-74